createdAt,value
2018-09-23T00:01:46.166Z,0.90
2018-09-23T00:04:18.921Z,1.33
2018-09-23T00:06:48.790Z,0.83
2018-09-23T00:09:21.578Z,0.97
2018-09-23T00:11:50.883Z,1.00
2018-09-23T00:14:23.258Z,1.03
2018-09-23T00:16:52.815Z,0.90
2018-09-23T00:19:25.677Z,0.90
2018-09-23T00:21:55.074Z,0.60
2018-09-23T00:24:28.845Z,0.93
2018-09-23T00:26:58.239Z,0.70
2018-09-23T00:29:36.085Z,0.87
2018-09-23T00:32:06.006Z,0.80
2018-09-23T00:34:35.259Z,1.27
2018-09-23T00:37:04.516Z,0.60
2018-09-23T00:39:35.899Z,0.90
2018-09-23T00:42:05.486Z,0.70
2018-09-23T00:44:42.987Z,0.87
2018-09-23T00:47:12.280Z,0.83
2018-09-23T00:49:42.743Z,1.00
2018-09-23T00:52:12.345Z,1.03
2018-09-23T00:54:43.785Z,1.50
2018-09-23T00:57:13.056Z,1.10
2018-09-23T00:59:46.669Z,0.93
2018-09-23T01:02:17.186Z,0.93
2018-09-23T01:04:49.326Z,1.13
2018-09-23T01:07:18.583Z,1.30
2018-09-23T01:09:52.241Z,1.17
2018-09-23T01:12:21.547Z,1.37
2018-09-23T01:14:54.914Z,1.10
2018-09-23T01:17:24.266Z,1.30
2018-09-23T01:19:58.160Z,2.03
2018-09-23T01:22:28.005Z,1.10
2018-09-23T01:25:00.926Z,1.63
2018-09-23T01:27:30.265Z,1.40
2018-09-23T01:30:06.905Z,1.83
2018-09-23T01:32:48.307Z,1.20
2018-09-23T01:35:17.862Z,2.37
2018-09-23T01:37:47.108Z,1.70
2018-09-23T01:40:16.474Z,2.70
2018-09-23T01:42:45.937Z,1.20
2018-09-23T01:45:15.413Z,1.57
2018-09-23T01:47:44.867Z,1.60
2018-09-23T01:50:16.126Z,1.17
2018-09-23T01:52:45.394Z,1.10
2018-09-23T01:55:18.821Z,1.33
2018-09-23T01:57:48.574Z,1.13
2018-09-23T02:00:21.858Z,1.37
2018-09-23T02:02:51.278Z,1.30
2018-09-23T02:05:25.906Z,1.50
2018-09-23T02:07:55.084Z,1.10
2018-09-23T02:10:25.009Z,1.53
2018-09-23T02:12:54.385Z,0.97
2018-09-23T02:15:27.992Z,1.33
2018-09-23T02:17:57.486Z,1.40
2018-09-23T02:20:30.336Z,1.07
2018-09-23T02:22:59.783Z,1.57
2018-09-23T02:25:33.252Z,1.27
2018-09-23T02:28:02.628Z,1.00
2018-09-23T02:30:35.695Z,1.30
2018-09-23T02:33:05.149Z,1.43
2018-09-23T02:38:11.334Z,0.97
2018-09-23T02:40:41.346Z,1.67
2018-09-23T02:43:10.855Z,0.90
2018-09-23T02:45:47.350Z,1.03
2018-09-23T02:48:16.493Z,0.80
2018-09-23T02:50:46.208Z,1.20
2018-09-23T02:53:15.333Z,0.90
2018-09-23T02:55:48.800Z,0.93
2018-09-23T02:58:17.977Z,0.80
2018-09-23T03:00:51.995Z,0.90
2018-09-23T03:03:21.562Z,0.80
2018-09-23T03:05:54.299Z,0.93
2018-09-23T03:08:23.497Z,0.60
2018-09-23T03:10:57.702Z,0.80
2018-09-23T03:13:27.013Z,0.83
2018-09-23T03:16:00.334Z,0.73
2018-09-23T03:18:29.529Z,0.77
2018-09-23T03:21:03.551Z,0.70
2018-09-23T03:23:33.041Z,0.70
2018-09-23T03:26:06.343Z,0.83
2018-09-23T03:28:35.499Z,0.80
2018-09-23T03:31:09.266Z,0.83
2018-09-23T03:33:38.506Z,0.60
2018-09-23T03:36:13.445Z,0.70
2018-09-23T03:38:43.986Z,0.80
2018-09-23T03:41:16.363Z,0.80
2018-09-23T03:43:45.613Z,0.70
2018-09-23T03:46:18.719Z,0.93
2018-09-23T03:48:48.195Z,1.00
2018-09-23T03:51:20.940Z,0.83
2018-09-23T03:53:50.438Z,1.00
2018-09-23T03:56:23.478Z,0.87
2018-09-23T03:58:52.690Z,0.90
2018-09-23T04:01:25.611Z,1.07
2018-09-23T04:03:54.863Z,1.00
2018-09-23T04:06:28.352Z,0.97
2018-09-23T04:08:57.824Z,0.87
2018-09-23T04:11:30.583Z,1.77
2018-09-23T04:13:59.875Z,1.00
2018-09-23T04:16:33.508Z,0.93
2018-09-23T04:19:02.697Z,1.10
2018-09-23T04:21:35.911Z,1.23
2018-09-23T04:24:05.906Z,1.13
2018-09-23T04:26:38.554Z,1.20
2018-09-23T04:29:07.810Z,1.00
2018-09-23T04:31:40.120Z,1.07
2018-09-23T04:34:09.317Z,1.07
2018-09-23T04:36:44.285Z,0.97
2018-09-23T04:39:13.782Z,1.20
2018-09-23T04:41:47.028Z,1.20
2018-09-23T04:44:16.310Z,1.10
2018-09-23T04:46:49.737Z,1.00
2018-09-23T04:49:18.935Z,1.10
2018-09-23T04:51:53.205Z,1.10
2018-09-23T04:54:22.394Z,0.80
2018-09-23T04:56:55.901Z,1.07
2018-09-23T04:59:25.109Z,0.80
2018-09-23T05:01:58.519Z,0.93
2018-09-23T05:04:28.030Z,0.80
2018-09-23T05:07:00.050Z,1.00
2018-09-23T05:09:29.570Z,1.00
2018-09-23T05:12:06.210Z,1.10
2018-09-23T05:14:35.811Z,1.37
2018-09-23T05:17:06.734Z,1.27
2018-09-23T05:19:36.153Z,3.23
2018-09-23T05:22:10.679Z,1.00
2018-09-23T05:24:40.117Z,0.97
2018-09-23T05:27:15.345Z,1.13
2018-09-23T05:29:45.006Z,1.13
2018-09-23T05:32:17.213Z,1.33
2018-09-23T05:34:46.399Z,1.50
2018-09-23T05:37:19.233Z,1.30
2018-09-23T05:39:48.383Z,1.10
2018-09-23T05:42:21.502Z,1.33
2018-09-23T05:44:51.005Z,1.00
2018-09-23T05:47:23.117Z,1.07
2018-09-23T05:49:52.579Z,1.10
2018-09-23T05:52:28.804Z,1.20
2018-09-23T05:54:58.342Z,0.97
2018-09-23T05:57:31.156Z,1.03
2018-09-23T06:00:00.997Z,0.90
2018-09-23T06:02:33.988Z,1.07
2018-09-23T06:05:03.963Z,1.10
2018-09-23T06:07:36.888Z,1.10
2018-09-23T06:10:06.295Z,1.27
2018-09-23T06:12:43.565Z,1.30
2018-09-23T06:15:12.892Z,1.23
2018-09-23T06:17:42.926Z,1.43
2018-09-23T06:20:12.918Z,1.27
2018-09-23T06:22:44.182Z,1.63
2018-09-23T06:25:13.444Z,1.40
2018-09-23T06:27:48.403Z,1.40
2018-09-23T06:30:18.449Z,2.03
2018-09-23T06:32:51.051Z,1.27
2018-09-23T06:35:20.568Z,1.13
2018-09-23T06:37:53.553Z,1.43
2018-09-23T06:40:22.873Z,1.03
2018-09-23T06:42:59.524Z,1.17
2018-09-23T06:45:29.371Z,1.10
2018-09-23T06:47:59.937Z,1.07
2018-09-23T06:50:29.120Z,1.20
2018-09-23T06:53:02.248Z,1.13
2018-09-23T06:55:32.053Z,1.40
2018-09-23T06:58:05.766Z,1.77
2018-09-23T07:00:34.978Z,3.80
2018-09-23T07:03:08.667Z,4.50
2018-09-23T07:05:37.865Z,2.70
2018-09-23T07:08:11.071Z,2.50
2018-09-23T07:10:40.552Z,2.07
2018-09-23T07:13:15.788Z,2.03
2018-09-23T07:15:46.628Z,2.60
2018-09-23T07:18:19.143Z,3.07
2018-09-23T07:20:48.853Z,3.00
2018-09-23T07:23:20.387Z,2.47
2018-09-23T07:25:50.120Z,1.80
2018-09-23T07:28:22.861Z,2.03
2018-09-23T07:30:52.890Z,1.80
2018-09-23T07:33:26.254Z,2.00
2018-09-23T07:35:56.000Z,1.97
2018-09-23T07:38:30.956Z,1.67
2018-09-23T07:41:00.384Z,2.37
2018-09-23T07:43:33.301Z,2.33
2018-09-23T07:46:03.134Z,1.90
2018-09-23T07:48:35.742Z,2.10
2018-09-23T07:51:05.584Z,1.97
2018-09-23T07:53:38.385Z,2.57
2018-09-23T07:56:07.950Z,1.97
2018-09-23T07:58:41.852Z,2.53
2018-09-23T08:01:11.433Z,2.40
2018-09-23T08:03:42.794Z,1.80
2018-09-23T08:06:12.835Z,1.70
2018-09-23T08:08:46.583Z,1.63
2018-09-23T08:11:16.384Z,1.63
2018-09-23T08:13:53.821Z,1.90
2018-09-23T08:16:22.896Z,1.83
2018-09-23T08:18:53.856Z,1.50
2018-09-23T08:21:23.389Z,1.40
2018-09-23T08:23:55.580Z,1.27
2018-09-23T08:26:25.947Z,1.60
2018-09-23T08:28:58.815Z,1.40
2018-09-23T08:31:28.449Z,1.43
2018-09-23T08:34:01.415Z,1.53
2018-09-23T08:36:30.982Z,1.30
2018-09-23T08:39:08.132Z,1.43
2018-09-23T08:41:37.865Z,1.30
2018-09-23T08:46:43.071Z,1.07
2018-09-23T08:49:13.040Z,1.50
2018-09-23T08:51:43.213Z,1.20
2018-09-23T08:54:13.898Z,1.27
2018-09-23T08:56:43.790Z,1.30
2018-09-23T08:59:16.246Z,1.07
2018-09-23T09:01:45.709Z,0.90
2018-09-23T09:04:19.467Z,1.03
2018-09-23T09:06:51.357Z,1.17
2018-09-23T09:09:21.754Z,1.43
2018-09-23T09:11:52.699Z,1.10
2018-09-23T09:14:22.722Z,1.80
2018-09-23T09:16:52.226Z,1.10
2018-09-23T09:19:29.631Z,1.07
2018-09-23T09:21:59.627Z,1.30
2018-09-23T09:24:29.318Z,1.20
2018-09-23T09:27:03.584Z,1.37
2018-09-23T09:29:33.328Z,1.50
2018-09-23T09:32:02.856Z,1.17
2018-09-23T09:34:34.744Z,0.80
2018-09-23T09:37:04.121Z,0.60
2018-09-23T09:39:36.280Z,0.57
2018-09-23T09:42:06.624Z,0.43
2018-09-23T09:44:40.254Z,0.60
2018-09-23T09:47:10.287Z,0.50
2018-09-23T09:49:42.623Z,0.60
2018-09-23T09:52:12.050Z,0.50
2018-09-23T09:54:44.245Z,0.43
2018-09-23T09:57:17.779Z,0.33
2018-09-23T09:59:47.403Z,0.40
2018-09-23T10:02:17.098Z,0.40
2018-09-23T10:04:50.452Z,0.53
2018-09-23T10:07:21.217Z,0.50
2018-09-23T10:09:52.578Z,0.50
2018-09-23T10:12:25.384Z,0.43
2018-09-23T10:14:56.333Z,0.40
2018-09-23T10:17:27.246Z,0.40
2018-09-23T10:20:03.043Z,0.40
2018-09-23T10:22:32.855Z,0.60
2018-09-23T10:25:02.460Z,0.60
2018-09-23T10:27:32.938Z,0.50
2018-09-23T10:30:03.775Z,0.50
2018-09-23T10:32:33.266Z,0.60
2018-09-23T10:35:10.776Z,0.53
2018-09-23T10:37:40.334Z,0.57
2018-09-23T10:40:12.331Z,1.00
2018-09-23T10:42:44.350Z,0.60
2018-09-23T10:45:15.931Z,0.83
2018-09-23T10:47:45.711Z,0.70
2018-09-23T10:50:17.642Z,0.60
2018-09-23T10:52:48.314Z,0.70
2018-09-23T10:55:21.282Z,0.50
2018-09-23T10:57:51.999Z,0.70
2018-09-23T11:00:25.190Z,0.90
2018-09-23T11:02:56.270Z,0.40
2018-09-23T11:05:26.620Z,0.83
2018-09-23T11:07:56.260Z,0.50
2018-09-23T11:10:26.920Z,0.50
2018-09-23T11:12:57.227Z,0.40
2018-09-23T11:15:29.861Z,0.70
2018-09-23T11:17:59.784Z,0.67
2018-09-23T11:20:33.051Z,1.57
2018-09-23T11:23:03.462Z,0.60
2018-09-23T11:25:34.434Z,0.57
2018-09-23T11:28:04.616Z,0.40
2018-09-23T11:30:37.436Z,0.67
2018-09-23T11:33:07.126Z,0.73
2018-09-23T11:35:39.577Z,0.67
2018-09-23T11:38:09.646Z,0.60
2018-09-23T11:40:42.703Z,0.70
2018-09-23T11:43:12.915Z,0.80
2018-09-23T11:45:45.155Z,0.80
2018-09-23T11:48:14.955Z,0.73
2018-09-23T11:50:48.235Z,0.67
2018-09-23T11:53:18.207Z,0.80
2018-09-23T11:55:50.583Z,0.87
2018-09-23T11:58:22.721Z,0.60
2018-09-23T12:00:54.887Z,0.80
2018-09-23T12:03:24.748Z,0.70
2018-09-23T12:05:56.910Z,0.77
2018-09-23T12:08:26.497Z,0.70
2018-09-23T12:11:01.214Z,0.90
2018-09-23T12:13:30.949Z,1.00
2018-09-23T12:16:04.126Z,1.07
2018-09-23T12:18:33.642Z,1.00
2018-09-23T12:21:05.772Z,1.10
2018-09-23T12:23:35.329Z,1.10
2018-09-23T12:26:09.029Z,1.97
2018-09-23T12:28:38.936Z,1.13
2018-09-23T12:31:12.436Z,1.07
2018-09-23T12:33:42.958Z,1.00
2018-09-23T12:36:16.158Z,1.33
2018-09-23T12:38:46.616Z,1.20
2018-09-23T12:41:18.907Z,1.20
2018-09-23T12:43:48.283Z,1.00
2018-09-23T12:46:21.008Z,2.10
2018-09-23T12:48:52.924Z,1.37
2018-09-23T12:51:22.996Z,1.60
2018-09-23T12:53:54.955Z,1.87
2018-09-23T12:56:25.340Z,2.17
2018-09-23T12:58:54.676Z,1.23
2018-09-23T13:01:28.097Z,1.47
2018-09-23T13:03:57.657Z,0.80
2018-09-23T13:06:35.279Z,0.83
2018-09-23T13:09:05.910Z,1.00
2018-09-23T13:11:36.089Z,0.80
2018-09-23T13:14:06.064Z,0.80
2018-09-23T13:16:38.126Z,0.97
2018-09-23T13:19:07.551Z,0.70
2018-09-23T13:21:40.201Z,0.73
2018-09-23T13:24:10.439Z,0.60
2018-09-23T13:26:43.685Z,0.60
2018-09-23T13:29:16.295Z,0.60
2018-09-23T13:31:46.204Z,0.80
2018-09-23T13:34:15.736Z,0.73
2018-09-23T13:36:48.932Z,1.17
2018-09-23T13:39:19.014Z,0.83
2018-09-23T13:41:55.968Z,0.83
2018-09-23T13:44:25.493Z,0.70
2018-09-23T13:46:55.187Z,1.00
2018-09-23T13:49:24.581Z,0.87
2018-09-23T13:51:58.734Z,0.93
2018-09-23T13:54:28.582Z,0.87
2018-09-23T13:57:02.672Z,1.03
2018-09-23T13:59:32.643Z,1.00
2018-09-23T14:02:03.222Z,1.00
2018-09-23T14:04:34.072Z,1.20
2018-09-23T14:07:07.298Z,1.03
2018-09-23T14:09:37.024Z,1.40
2018-09-23T14:12:09.799Z,1.87
2018-09-23T14:14:40.625Z,2.43
2018-09-23T14:17:13.866Z,2.13
2018-09-23T14:19:43.361Z,2.50
2018-09-23T14:22:16.474Z,2.07
2018-09-23T14:24:46.869Z,2.40
2018-09-23T14:27:19.372Z,1.60
2018-09-23T14:29:48.944Z,1.30
2018-09-23T14:32:20.877Z,1.53
2018-09-23T14:34:51.000Z,2.00
2018-09-23T14:37:23.481Z,1.77
2018-09-23T14:39:53.078Z,2.00
2018-09-23T14:42:26.713Z,2.17
2018-09-23T14:44:57.450Z,2.00
2018-09-23T14:47:29.349Z,2.52
2018-09-23T14:49:58.800Z,2.40
2018-09-23T14:52:35.741Z,2.53
2018-09-23T14:55:05.346Z,2.47
2018-09-23T14:57:35.148Z,2.10
2018-09-23T15:00:05.952Z,1.73
2018-09-23T15:02:37.716Z,1.23
2018-09-23T15:05:07.898Z,1.33
2018-09-23T15:07:40.382Z,1.53
2018-09-23T15:10:10.063Z,1.20
2018-09-23T15:12:44.424Z,1.50
2018-09-23T15:15:14.625Z,1.30
2018-09-23T15:17:46.766Z,1.50
2018-09-23T15:22:49.245Z,1.60
2018-09-23T15:25:18.768Z,1.30
2018-09-23T15:27:56.081Z,2.03
2018-09-23T15:30:26.092Z,2.13
2018-09-23T15:32:55.790Z,2.67
2018-09-23T15:35:25.417Z,1.63
2018-09-23T15:37:58.938Z,1.63
2018-09-23T15:40:29.981Z,2.00
2018-09-23T15:43:02.317Z,2.40
2018-09-23T15:45:33.877Z,2.00
2018-09-23T15:48:05.119Z,2.53
2018-09-23T15:50:34.732Z,2.40
2018-09-23T15:53:08.037Z,2.17
2018-09-23T15:55:38.647Z,1.93
2018-09-23T15:58:11.610Z,2.77
2018-09-23T16:00:41.429Z,2.70
2018-09-23T16:03:18.753Z,3.00
2018-09-23T16:05:50.551Z,3.00
2018-09-23T16:08:20.364Z,4.00
2018-09-23T16:10:50.475Z,3.00
2018-09-23T16:13:20.947Z,2.93
2018-09-23T16:15:50.980Z,2.70
2018-09-23T16:18:22.244Z,2.60
2018-09-23T16:20:51.875Z,2.37
2018-09-23T16:23:25.401Z,2.43
2018-09-23T16:25:55.114Z,2.20
2018-09-23T16:28:27.267Z,2.93
2018-09-23T16:30:56.816Z,2.27
2018-09-23T16:33:29.508Z,2.40
2018-09-23T16:35:59.073Z,3.23
2018-09-23T16:38:32.275Z,3.90
2018-09-23T16:41:01.984Z,3.60
2018-09-23T16:43:35.198Z,3.53
2018-09-23T16:46:04.712Z,2.83
2018-09-23T16:48:38.281Z,3.93
2018-09-23T16:51:07.576Z,3.47
2018-09-23T16:53:39.980Z,2.90
2018-09-23T16:56:09.626Z,3.63
2018-09-23T16:58:42.887Z,3.30
2018-09-23T17:01:13.015Z,2.60
2018-09-23T17:03:46.924Z,2.40
2018-09-23T17:06:16.557Z,1.97
2018-09-23T17:08:49.483Z,2.23
2018-09-23T17:11:21.449Z,2.13
2018-09-23T17:13:52.488Z,2.07
2018-09-23T17:16:22.157Z,2.30
2018-09-23T17:18:59.442Z,2.07
2018-09-23T17:21:29.284Z,1.70
2018-09-23T17:24:00.067Z,3.63
2018-09-23T17:26:29.997Z,2.13
2018-09-23T17:29:00.456Z,1.83
2018-09-23T17:31:30.023Z,2.10
2018-09-23T17:34:03.793Z,1.87
2018-09-23T17:36:33.143Z,2.57
2018-09-23T17:39:11.439Z,2.90
2018-09-23T17:41:41.309Z,2.37
2018-09-23T17:44:10.907Z,3.13
2018-09-23T17:46:40.814Z,2.00
2018-09-23T17:49:14.611Z,2.80
2018-09-23T17:51:45.168Z,1.93
2018-09-23T17:54:17.079Z,1.93
2018-09-23T17:56:46.806Z,1.30
2018-09-23T17:59:18.861Z,1.47
2018-09-23T18:01:49.804Z,1.00
2018-09-23T18:04:22.706Z,1.57
2018-09-23T18:06:52.209Z,0.93
2018-09-23T18:09:24.130Z,1.57
2018-09-23T18:11:54.167Z,0.90
2018-09-23T18:14:26.282Z,1.37
2018-09-23T18:16:55.751Z,1.10
2018-09-23T18:19:28.471Z,1.40
2018-09-23T18:21:58.202Z,1.40
2018-09-23T18:24:32.397Z,1.73
2018-09-23T18:27:02.359Z,1.10
2018-09-23T18:29:33.505Z,2.13
2018-09-23T18:32:02.926Z,1.20
2018-09-23T18:34:36.284Z,1.80
2018-09-23T18:37:05.885Z,1.60
2018-09-23T18:39:39.292Z,2.17
2018-09-23T18:42:09.253Z,1.63
2018-09-23T18:44:41.359Z,2.30
2018-09-23T18:47:11.653Z,1.40
2018-09-23T18:49:43.949Z,2.23
2018-09-23T18:52:14.349Z,1.60
2018-09-23T18:57:29.129Z,2.00
2018-09-23T18:59:58.892Z,2.27
2018-09-23T19:02:28.453Z,1.40
2018-09-23T19:04:57.933Z,2.23
2018-09-23T19:07:27.611Z,1.40
2018-09-23T19:09:56.945Z,2.00
2018-09-23T19:12:26.496Z,1.80
2018-09-23T19:14:58.504Z,1.47
2018-09-23T19:17:27.894Z,1.10
2018-09-23T19:20:06.456Z,1.13
2018-09-23T19:22:41.238Z,1.00
2018-09-23T19:25:11.120Z,2.53
2018-09-23T19:27:40.781Z,1.40
2018-09-23T19:30:10.718Z,2.13
2018-09-23T19:32:41.509Z,0.90
2018-09-23T19:35:11.078Z,2.43
2018-09-23T19:37:41.275Z,1.40
2018-09-23T19:40:14.978Z,2.27
2018-09-23T19:42:45.588Z,1.27
2018-09-23T19:45:17.438Z,1.77
2018-09-23T19:47:48.025Z,1.20
2018-09-23T19:50:21.253Z,1.73
2018-09-23T19:52:51.502Z,1.00
2018-09-23T19:55:22.184Z,1.63
2018-09-23T19:57:52.975Z,0.90
2018-09-23T20:00:24.426Z,1.67
2018-09-23T20:03:00.031Z,1.20
2018-09-23T20:05:31.045Z,1.93
2018-09-23T20:08:01.453Z,1.40
2018-09-23T20:10:31.250Z,2.27
2018-09-23T20:13:01.881Z,1.10
2018-09-23T20:15:32.067Z,2.07
2018-09-23T20:18:01.632Z,1.60
2018-09-23T20:20:34.276Z,1.93
2018-09-23T20:23:04.566Z,1.43
2018-09-23T20:25:36.917Z,2.80
2018-09-23T20:28:06.888Z,1.20
2018-09-23T20:30:39.312Z,1.60
2018-09-23T20:33:09.150Z,1.70
2018-09-23T20:35:41.679Z,2.77
2018-09-23T20:38:12.930Z,1.73
2018-09-23T20:40:43.387Z,2.20
2018-09-23T20:43:13.050Z,1.83
2018-09-23T20:45:46.405Z,2.17
2018-09-23T20:48:16.209Z,1.83
2018-09-23T20:50:52.055Z,2.37
2018-09-23T20:53:21.783Z,1.60
2018-09-23T20:55:52.563Z,2.10
2018-09-23T20:58:22.786Z,2.30
2018-09-23T21:00:54.964Z,1.93
2018-09-23T21:03:24.548Z,1.87
2018-09-23T21:05:57.692Z,2.07
2018-09-23T21:08:27.508Z,2.70
2018-09-23T21:11:02.063Z,2.40
2018-09-23T21:13:31.644Z,2.47
2018-09-23T21:16:04.066Z,3.57
2018-09-23T21:18:33.726Z,2.87
2018-09-23T21:21:07.009Z,2.40
2018-09-23T21:23:36.624Z,2.90
2018-09-23T21:26:09.917Z,2.30
2018-09-23T21:28:40.150Z,3.30
2018-09-23T21:31:14.708Z,2.83
2018-09-23T21:33:44.283Z,2.70
2018-09-23T21:36:15.863Z,3.40
2018-09-23T21:38:46.631Z,2.93
2018-09-23T21:41:18.741Z,3.33
2018-09-23T21:43:48.435Z,2.47
2018-09-23T21:46:21.808Z,2.93
2018-09-23T21:48:51.359Z,3.50
2018-09-23T21:51:24.351Z,3.37
2018-09-23T21:53:54.227Z,4.07
2018-09-23T21:56:26.761Z,3.97
2018-09-23T21:58:56.252Z,3.27
2018-09-23T22:01:28.466Z,3.70
2018-09-23T22:03:57.914Z,4.03
2018-09-23T22:06:31.168Z,4.93
2018-09-23T22:09:01.692Z,4.70
2018-09-23T22:11:33.960Z,4.73
2018-09-23T22:14:03.205Z,4.67
2018-09-23T22:16:40.149Z,4.50
2018-09-23T22:19:09.716Z,6.27
2018-09-23T22:21:39.288Z,5.60
2018-09-23T22:24:09.275Z,5.00
2018-09-23T22:26:42.104Z,5.30
2018-09-23T22:29:11.869Z,5.03
2018-09-23T22:31:43.058Z,5.07
2018-09-23T22:34:12.505Z,5.50
2018-09-23T22:36:47.176Z,5.27
2018-09-23T22:39:17.056Z,5.50
2018-09-23T22:41:49.645Z,5.67
2018-09-23T22:44:19.161Z,6.10
2018-09-23T22:46:53.112Z,5.77
2018-09-23T22:49:22.977Z,6.27
2018-09-23T22:51:55.834Z,6.47
2018-09-23T22:54:25.326Z,6.93
2018-09-23T22:56:57.521Z,8.53
2018-09-23T22:59:26.826Z,6.90
2018-09-23T23:02:01.319Z,7.70
2018-09-23T23:04:31.193Z,7.27
2018-09-23T23:07:04.338Z,7.00
2018-09-23T23:09:33.720Z,7.40
2018-09-23T23:12:07.813Z,7.57
2018-09-23T23:14:38.148Z,8.37
2018-09-23T23:17:11.174Z,8.83
2018-09-23T23:19:40.707Z,7.60
2018-09-23T23:22:15.184Z,7.77
2018-09-23T23:24:44.754Z,7.60
2018-09-23T23:27:17.075Z,7.73
2018-09-23T23:29:46.971Z,7.77
2018-09-23T23:32:18.370Z,8.53
2018-09-23T23:34:48.005Z,10.20
2018-09-23T23:37:21.852Z,8.70
2018-09-23T23:39:51.728Z,9.70
2018-09-23T23:42:23.534Z,9.43
2018-09-23T23:44:53.061Z,8.10
2018-09-23T23:47:26.939Z,8.70
2018-09-23T23:49:56.423Z,8.53
2018-09-23T23:52:28.447Z,7.97
2018-09-23T23:54:58.354Z,8.67
2018-09-23T23:57:31.137Z,7.67
